sensor_id;sensor_type;location;lat;lon;timestamp;temperature;humidity
23124;DHT22;11731;48.592;8.858;2022-09-23T00:02:00;11.10;98.90
23124;DHT22;11731;48.592;8.858;2022-09-23T00:04:27;11.10;98.60
23124;DHT22;11731;48.592;8.858;2022-09-23T00:06:54;11.00;98.50
23124;DHT22;11731;48.592;8.858;2022-09-23T00:09:21;11.00;98.80
23124;DHT22;11731;48.592;8.858;2022-09-23T00:11:50;10.90;98.90
23124;DHT22;11731;48.592;8.858;2022-09-23T00:14:21;10.90;98.80
23124;DHT22;11731;48.592;8.858;2022-09-23T00:17:11;11.00;98.70
23124;DHT22;11731;48.592;8.858;2022-09-23T00:19:38;11.00;98.80
23124;DHT22;11731;48.592;8.858;2022-09-23T00:22:05;11.00;98.90
23124;DHT22;11731;48.592;8.858;2022-09-23T00:24:33;10.90;98.80
23124;DHT22;11731;48.592;8.858;2022-09-23T00:27:01;11.00;98.60
23124;DHT22;11731;48.592;8.858;2022-09-23T00:29:28;11.00;98.90
23124;DHT22;11731;48.592;8.858;2022-09-23T00:31:56;10.90;98.80
23124;DHT22;11731;48.592;8.858;2022-09-23T00:34:23;10.70;99.10
23124;DHT22;11731;48.592;8.858;2022-09-23T00:36:50;10.70;99.40
23124;DHT22;11731;48.592;8.858;2022-09-23T00:39:17;10.70;99.20
23124;DHT22;11731;48.592;8.858;2022-09-23T00:41:43;10.70;99.30
23124;DHT22;11731;48.592;8.858;2022-09-23T00:44:41;10.90;98.90
23124;DHT22;11731;48.592;8.858;2022-09-23T00:47:12;10.90;98.80
23124;DHT22;11731;48.592;8.858;2022-09-23T00:49:40;10.70;99.40
23124;DHT22;11731;48.592;8.858;2022-09-23T00:52:11;10.70;99.40
23124;DHT22;11731;48.592;8.858;2022-09-23T00:54:38;10.70;99.60
23124;DHT22;11731;48.592;8.858;2022-09-23T00:57:05;10.70;99.50
23124;DHT22;11731;48.592;8.858;2022-09-23T00:59:33;10.70;99.50
23124;DHT22;11731;48.592;8.858;2022-09-23T01:02:02;10.90;99.40
23124;DHT22;11731;48.592;8.858;2022-09-23T01:04:30;10.70;99.60
23124;DHT22;11731;48.592;8.858;2022-09-23T01:06:57;10.60;99.30
23124;DHT22;11731;48.592;8.858;2022-09-23T01:09:24;10.60;99.40
23124;DHT22;11731;48.592;8.858;2022-09-23T01:11:56;10.70;99.30
23124;DHT22;11731;48.592;8.858;2022-09-23T01:14:35;10.80;99.30
23124;DHT22;11731;48.592;8.858;2022-09-23T01:17:08;10.80;99.10
23124;DHT22;11731;48.592;8.858;2022-09-23T01:22:42;10.60;99.50
23124;DHT22;11731;48.592;8.858;2022-09-23T01:25:27;10.80;99.40
23124;DHT22;11731;48.592;8.858;2022-09-23T01:28:19;10.90;99.10
23124;DHT22;11731;48.592;8.858;2022-09-23T01:30:57;10.90;99.00
23124;DHT22;11731;48.592;8.858;2022-09-23T01:33:34;10.90;99.10
23124;DHT22;11731;48.592;8.858;2022-09-23T01:36:09;10.70;99.20
23124;DHT22;11731;48.592;8.858;2022-09-23T01:38:44;10.70;99.40
23124;DHT22;11731;48.592;8.858;2022-09-23T01:41:28;10.70;99.00
23124;DHT22;11731;48.592;8.858;2022-09-23T01:44:04;10.50;99.20
23124;DHT22;11731;48.592;8.858;2022-09-23T01:46:39;10.30;99.90
23124;DHT22;11731;48.592;8.858;2022-09-23T01:49:10;10.50;99.70
23124;DHT22;11731;48.592;8.858;2022-09-23T01:51:44;10.60;99.60
23124;DHT22;11731;48.592;8.858;2022-09-23T01:54:14;10.80;99.30
23124;DHT22;11731;48.592;8.858;2022-09-23T01:56:48;10.90;98.90
23124;DHT22;11731;48.592;8.858;2022-09-23T01:59:19;10.90;98.90
23124;DHT22;11731;48.592;8.858;2022-09-23T02:01:55;10.80;98.70
23124;DHT22;11731;48.592;8.858;2022-09-23T02:04:28;10.70;98.90
23124;DHT22;11731;48.592;8.858;2022-09-23T02:06:59;10.40;99.20
23124;DHT22;11731;48.592;8.858;2022-09-23T02:09:32;10.50;99.20
23124;DHT22;11731;48.592;8.858;2022-09-23T02:12:05;10.50;99.20
23124;DHT22;11731;48.592;8.858;2022-09-23T02:14:40;10.70;99.00
23124;DHT22;11731;48.592;8.858;2022-09-23T02:17:13;10.70;98.80
23124;DHT22;11731;48.592;8.858;2022-09-23T02:19:44;10.70;98.70
23124;DHT22;11731;48.592;8.858;2022-09-23T02:22:14;10.50;98.80
23124;DHT22;11731;48.592;8.858;2022-09-23T02:24:43;10.50;98.80
23124;DHT22;11731;48.592;8.858;2022-09-23T02:27:16;10.40;98.80
23124;DHT22;11731;48.592;8.858;2022-09-23T02:29:50;10.30;99.10
23124;DHT22;11731;48.592;8.858;2022-09-23T02:32:23;10.30;99.10
23124;DHT22;11731;48.592;8.858;2022-09-23T02:34:58;10.30;99.30
23124;DHT22;11731;48.592;8.858;2022-09-23T02:37:32;10.30;99.20
23124;DHT22;11731;48.592;8.858;2022-09-23T02:40:12;10.20;99.10
23124;DHT22;11731;48.592;8.858;2022-09-23T02:42:47;10.10;99.20
23124;DHT22;11731;48.592;8.858;2022-09-23T02:45:15;9.90;99.90
23124;DHT22;11731;48.592;8.858;2022-09-23T02:47:48;10.00;99.70
23124;DHT22;11731;48.592;8.858;2022-09-23T02:50:17;10.00;99.80
23124;DHT22;11731;48.592;8.858;2022-09-23T02:52:44;10.10;99.70
23124;DHT22;11731;48.592;8.858;2022-09-23T02:55:15;10.20;99.50
23124;DHT22;11731;48.592;8.858;2022-09-23T02:57:44;9.90;99.90
23124;DHT22;11731;48.592;8.858;2022-09-23T03:00:12;10.00;99.70
23124;DHT22;11731;48.592;8.858;2022-09-23T03:02:51;10.10;99.60
23124;DHT22;11731;48.592;8.858;2022-09-23T03:05:26;10.00;99.60
23124;DHT22;11731;48.592;8.858;2022-09-23T03:08:13;9.90;99.90
23124;DHT22;11731;48.592;8.858;2022-09-23T03:10:53;10.00;99.70
23124;DHT22;11731;48.592;8.858;2022-09-23T03:13:29;10.20;99.50
23124;DHT22;11731;48.592;8.858;2022-09-23T03:16:04;10.20;99.30
23124;DHT22;11731;48.592;8.858;2022-09-23T03:18:39;10.10;99.60
23124;DHT22;11731;48.592;8.858;2022-09-23T03:21:10;10.10;99.60
23124;DHT22;11731;48.592;8.858;2022-09-23T03:23:41;10.00;99.60
23124;DHT22;11731;48.592;8.858;2022-09-23T03:26:12;9.80;99.90
23124;DHT22;11731;48.592;8.858;2022-09-23T03:28:43;9.60;99.90
23124;DHT22;11731;48.592;8.858;2022-09-23T03:31:11;9.60;99.90
23124;DHT22;11731;48.592;8.858;2022-09-23T03:33:42;9.60;99.90
23124;DHT22;11731;48.592;8.858;2022-09-23T03:36:15;9.70;99.90
23124;DHT22;11731;48.592;8.858;2022-09-23T03:39:04;9.80;99.90
23124;DHT22;11731;48.592;8.858;2022-09-23T03:41:35;9.70;99.90
23124;DHT22;11731;48.592;8.858;2022-09-23T03:44:03;9.60;99.90
23124;DHT22;11731;48.592;8.858;2022-09-23T03:46:32;9.60;99.90
23124;DHT22;11731;48.592;8.858;2022-09-23T03:49:07;9.30;99.90
23124;DHT22;11731;48.592;8.858;2022-09-23T03:51:35;9.40;99.90
23124;DHT22;11731;48.592;8.858;2022-09-23T03:54:01;9.60;99.90
23124;DHT22;11731;48.592;8.858;2022-09-23T03:56:28;9.50;99.90
23124;DHT22;11731;48.592;8.858;2022-09-23T03:58:55;9.40;99.90
23124;DHT22;11731;48.592;8.858;2022-09-23T04:01:22;9.30;99.90
23124;DHT22;11731;48.592;8.858;2022-09-23T04:03:50;9.20;99.90
23124;DHT22;11731;48.592;8.858;2022-09-23T04:06:18;9.30;99.90
23124;DHT22;11731;48.592;8.858;2022-09-23T04:08:45;9.50;99.90
23124;DHT22;11731;48.592;8.858;2022-09-23T04:11:11;9.50;99.90
23124;DHT22;11731;48.592;8.858;2022-09-23T04:13:38;9.50;99.90
23124;DHT22;11731;48.592;8.858;2022-09-23T04:16:05;9.50;99.90
23124;DHT22;11731;48.592;8.858;2022-09-23T04:18:32;9.70;99.90
23124;DHT22;11731;48.592;8.858;2022-09-23T04:20:59;9.40;99.90
23124;DHT22;11731;48.592;8.858;2022-09-23T04:23:28;9.40;99.90
23124;DHT22;11731;48.592;8.858;2022-09-23T04:25:55;9.20;99.90
23124;DHT22;11731;48.592;8.858;2022-09-23T04:28:22;9.30;99.90
23124;DHT22;11731;48.592;8.858;2022-09-23T04:31:03;9.40;99.80
23124;DHT22;11731;48.592;8.858;2022-09-23T04:33:30;9.50;99.90
23124;DHT22;11731;48.592;8.858;2022-09-23T04:35:58;9.50;99.80
23124;DHT22;11731;48.592;8.858;2022-09-23T04:38:24;9.50;99.80
23124;DHT22;11731;48.592;8.858;2022-09-23T04:40:53;9.30;99.90
23124;DHT22;11731;48.592;8.858;2022-09-23T04:43:20;9.50;99.90
23124;DHT22;11731;48.592;8.858;2022-09-23T04:45:56;9.40;99.90
23124;DHT22;11731;48.592;8.858;2022-09-23T04:48:24;9.30;99.90
23124;DHT22;11731;48.592;8.858;2022-09-23T04:50:51;9.20;99.90
23124;DHT22;11731;48.592;8.858;2022-09-23T04:53:17;9.30;99.70
23124;DHT22;11731;48.592;8.858;2022-09-23T04:55:45;9.40;99.70
23124;DHT22;11731;48.592;8.858;2022-09-23T04:58:14;9.30;99.60
23124;DHT22;11731;48.592;8.858;2022-09-23T05:00:40;9.40;99.50
23124;DHT22;11731;48.592;8.858;2022-09-23T05:03:07;9.30;99.70
23124;DHT22;11731;48.592;8.858;2022-09-23T05:05:35;9.20;99.90
23124;DHT22;11731;48.592;8.858;2022-09-23T05:08:02;9.30;99.70
23124;DHT22;11731;48.592;8.858;2022-09-23T05:10:28;9.20;99.90
23124;DHT22;11731;48.592;8.858;2022-09-23T05:12:56;9.40;99.90
23124;DHT22;11731;48.592;8.858;2022-09-23T05:15:25;9.40;99.80
23124;DHT22;11731;48.592;8.858;2022-09-23T05:17:52;9.40;99.70
23124;DHT22;11731;48.592;8.858;2022-09-23T05:20:22;9.10;99.90
23124;DHT22;11731;48.592;8.858;2022-09-23T05:22:49;9.20;99.90
23124;DHT22;11731;48.592;8.858;2022-09-23T05:25:17;9.10;99.90
23124;DHT22;11731;48.592;8.858;2022-09-23T05:27:44;9.10;99.90
23124;DHT22;11731;48.592;8.858;2022-09-23T05:30:16;9.20;99.90
23124;DHT22;11731;48.592;8.858;2022-09-23T05:32:58;9.30;99.80
23124;DHT22;11731;48.592;8.858;2022-09-23T05:35:27;9.40;99.90
23124;DHT22;11731;48.592;8.858;2022-09-23T05:37:54;9.50;99.90
23124;DHT22;11731;48.592;8.858;2022-09-23T05:40:20;9.60;99.90
23124;DHT22;11731;48.592;8.858;2022-09-23T05:42:55;9.60;99.50
23124;DHT22;11731;48.592;8.858;2022-09-23T05:45:22;9.50;99.90
23124;DHT22;11731;48.592;8.858;2022-09-23T05:47:49;9.40;99.90
23124;DHT22;11731;48.592;8.858;2022-09-23T05:50:17;9.50;99.90
23124;DHT22;11731;48.592;8.858;2022-09-23T05:52:44;9.70;99.90
23124;DHT22;11731;48.592;8.858;2022-09-23T05:55:11;9.60;99.90
23124;DHT22;11731;48.592;8.858;2022-09-23T05:57:38;9.80;99.90
23124;DHT22;11731;48.592;8.858;2022-09-23T06:00:06;9.80;99.90
23124;DHT22;11731;48.592;8.858;2022-09-23T06:02:33;9.80;99.90
23124;DHT22;11731;48.592;8.858;2022-09-23T06:05:00;9.90;99.90
23124;DHT22;11731;48.592;8.858;2022-09-23T06:07:28;10.00;99.50
23124;DHT22;11731;48.592;8.858;2022-09-23T06:09:56;10.00;99.50
23124;DHT22;11731;48.592;8.858;2022-09-23T06:12:23;9.90;99.90
23124;DHT22;11731;48.592;8.858;2022-09-23T06:14:50;9.90;99.90
23124;DHT22;11731;48.592;8.858;2022-09-23T06:17:17;9.90;99.90
23124;DHT22;11731;48.592;8.858;2022-09-23T06:19:44;9.80;99.90
23124;DHT22;11731;48.592;8.858;2022-09-23T06:22:11;9.60;99.90
23124;DHT22;11731;48.592;8.858;2022-09-23T06:24:42;9.60;99.90
23124;DHT22;11731;48.592;8.858;2022-09-23T06:27:09;9.70;99.90
23124;DHT22;11731;48.592;8.858;2022-09-23T06:29:36;9.80;99.90
23124;DHT22;11731;48.592;8.858;2022-09-23T06:32:03;9.80;99.90
23124;DHT22;11731;48.592;8.858;2022-09-23T06:34:30;10.00;99.90
23124;DHT22;11731;48.592;8.858;2022-09-23T06:36:58;10.00;99.90
23124;DHT22;11731;48.592;8.858;2022-09-23T06:39:25;10.00;99.50
23124;DHT22;11731;48.592;8.858;2022-09-23T06:41:53;10.10;99.80
23124;DHT22;11731;48.592;8.858;2022-09-23T06:44:20;10.10;99.40
23124;DHT22;11731;48.592;8.858;2022-09-23T06:46:46;10.00;99.90
23124;DHT22;11731;48.592;8.858;2022-09-23T06:49:13;9.90;99.90
23124;DHT22;11731;48.592;8.858;2022-09-23T06:51:40;9.80;99.90
23124;DHT22;11731;48.592;8.858;2022-09-23T06:54:07;9.30;99.90
23124;DHT22;11731;48.592;8.858;2022-09-23T06:56:35;9.60;99.90
23124;DHT22;11731;48.592;8.858;2022-09-23T06:59:04;9.90;99.90
23124;DHT22;11731;48.592;8.858;2022-09-23T07:01:30;10.00;99.90
23124;DHT22;11731;48.592;8.858;2022-09-23T07:03:57;10.50;99.90
23124;DHT22;11731;48.592;8.858;2022-09-23T07:06:26;10.60;99.90
23124;DHT22;11731;48.592;8.858;2022-09-23T07:08:52;10.50;99.90
23124;DHT22;11731;48.592;8.858;2022-09-23T07:11:19;10.50;99.90
23124;DHT22;11731;48.592;8.858;2022-09-23T07:13:47;10.80;99.90
23124;DHT22;11731;48.592;8.858;2022-09-23T07:16:15;10.80;99.90
23124;DHT22;11731;48.592;8.858;2022-09-23T07:18:42;11.20;99.90
23124;DHT22;11731;48.592;8.858;2022-09-23T07:21:11;10.90;99.90
23124;DHT22;11731;48.592;8.858;2022-09-23T07:23:39;10.80;99.90
23124;DHT22;11731;48.592;8.858;2022-09-23T07:26:06;10.90;99.90
23124;DHT22;11731;48.592;8.858;2022-09-23T07:28:33;11.20;99.90
23124;DHT22;11731;48.592;8.858;2022-09-23T07:31:03;11.50;99.90
23124;DHT22;11731;48.592;8.858;2022-09-23T07:33:33;11.60;99.90
23124;DHT22;11731;48.592;8.858;2022-09-23T07:36:04;11.70;99.80
23124;DHT22;11731;48.592;8.858;2022-09-23T07:38:31;12.00;99.90
23124;DHT22;11731;48.592;8.858;2022-09-23T07:41:02;12.30;99.40
23124;DHT22;11731;48.592;8.858;2022-09-23T07:43:29;12.70;99.30
23124;DHT22;11731;48.592;8.858;2022-09-23T07:45:58;12.70;98.70
23124;DHT22;11731;48.592;8.858;2022-09-23T07:48:26;13.00;98.70
23124;DHT22;11731;48.592;8.858;2022-09-23T07:50:56;13.10;98.70
23124;DHT22;11731;48.592;8.858;2022-09-23T07:53:24;13.40;98.60
23124;DHT22;11731;48.592;8.858;2022-09-23T07:55:52;13.00;98.90
23124;DHT22;11731;48.592;8.858;2022-09-23T07:58:19;13.00;99.30
23124;DHT22;11731;48.592;8.858;2022-09-23T08:00:46;13.10;99.10
23124;DHT22;11731;48.592;8.858;2022-09-23T08:03:18;13.00;98.50
23124;DHT22;11731;48.592;8.858;2022-09-23T08:05:45;13.20;99.00
23124;DHT22;11731;48.592;8.858;2022-09-23T08:08:14;12.90;99.20
23124;DHT22;11731;48.592;8.858;2022-09-23T08:10:41;13.00;99.20
23124;DHT22;11731;48.592;8.858;2022-09-23T08:13:08;13.20;99.00
23124;DHT22;11731;48.592;8.858;2022-09-23T08:15:35;13.00;99.30
23124;DHT22;11731;48.592;8.858;2022-09-23T08:18:03;12.80;99.90
23124;DHT22;11731;48.592;8.858;2022-09-23T08:20:30;12.80;99.90
23124;DHT22;11731;48.592;8.858;2022-09-23T08:23:13;13.00;99.90
23124;DHT22;11731;48.592;8.858;2022-09-23T08:28:11;13.90;99.10
23124;DHT22;11731;48.592;8.858;2022-09-23T08:30:39;14.20;98.70
23124;DHT22;11731;48.592;8.858;2022-09-23T08:33:05;14.00;98.90
23124;DHT22;11731;48.592;8.858;2022-09-23T08:35:32;14.40;98.80
23124;DHT22;11731;48.592;8.858;2022-09-23T08:37:59;14.60;98.50
23124;DHT22;11731;48.592;8.858;2022-09-23T08:40:27;14.60;98.30
23124;DHT22;11731;48.592;8.858;2022-09-23T08:42:56;14.60;98.40
23124;DHT22;11731;48.592;8.858;2022-09-23T08:45:25;14.70;98.60
23124;DHT22;11731;48.592;8.858;2022-09-23T08:47:57;15.00;98.30
23124;DHT22;11731;48.592;8.858;2022-09-23T08:50:29;14.90;98.10
23124;DHT22;11731;48.592;8.858;2022-09-23T08:52:59;14.60;98.90
23124;DHT22;11731;48.592;8.858;2022-09-23T08:55:33;14.90;98.60
23124;DHT22;11731;48.592;8.858;2022-09-23T08:58:06;15.10;98.20
23124;DHT22;11731;48.592;8.858;2022-09-23T09:00:39;15.30;98.20
23124;DHT22;11731;48.592;8.858;2022-09-23T09:03:19;15.70;97.60
23124;DHT22;11731;48.592;8.858;2022-09-23T09:05:48;15.50;97.60
23124;DHT22;11731;48.592;8.858;2022-09-23T09:08:21;15.10;98.30
23124;DHT22;11731;48.592;8.858;2022-09-23T09:10:52;15.30;98.00
23124;DHT22;11731;48.592;8.858;2022-09-23T09:13:27;15.70;97.70
23124;DHT22;11731;48.592;8.858;2022-09-23T09:16:09;16.10;97.20
23124;DHT22;11731;48.592;8.858;2022-09-23T09:18:47;16.30;96.50
23124;DHT22;11731;48.592;8.858;2022-09-23T09:21:17;16.50;96.50
23124;DHT22;11731;48.592;8.858;2022-09-23T09:23:53;16.80;96.20
23124;DHT22;11731;48.592;8.858;2022-09-23T09:26:24;16.70;96.00
23124;DHT22;11731;48.592;8.858;2022-09-23T09:28:56;16.70;96.70
23124;DHT22;11731;48.592;8.858;2022-09-23T09:31:28;17.00;95.80
23124;DHT22;11731;48.592;8.858;2022-09-23T09:33:59;17.00;96.10
23124;DHT22;11731;48.592;8.858;2022-09-23T09:36:34;17.20;96.10
23124;DHT22;11731;48.592;8.858;2022-09-23T09:39:02;17.40;95.70
23124;DHT22;11731;48.592;8.858;2022-09-23T09:41:30;17.30;95.80
23124;DHT22;11731;48.592;8.858;2022-09-23T09:43:59;17.40;96.10
23124;DHT22;11731;48.592;8.858;2022-09-23T09:46:41;17.60;95.60
23124;DHT22;11731;48.592;8.858;2022-09-23T09:49:18;17.80;95.50
23124;DHT22;11731;48.592;8.858;2022-09-23T09:52:11;18.10;95.20
23124;DHT22;11731;48.592;8.858;2022-09-23T09:54:39;18.30;95.20
23124;DHT22;11731;48.592;8.858;2022-09-23T09:57:15;18.40;94.60
23124;DHT22;11731;48.592;8.858;2022-09-23T09:59:43;18.50;94.80
23124;DHT22;11731;48.592;8.858;2022-09-23T10:02:23;18.80;94.50
23124;DHT22;11731;48.592;8.858;2022-09-23T10:04:55;19.00;94.50
23124;DHT22;11731;48.592;8.858;2022-09-23T10:07:26;19.10;94.40
23124;DHT22;11731;48.592;8.858;2022-09-23T10:09:53;19.00;94.40
23124;DHT22;11731;48.592;8.858;2022-09-23T10:12:23;19.30;94.30
23124;DHT22;11731;48.592;8.858;2022-09-23T10:14:54;19.10;94.50
23124;DHT22;11731;48.592;8.858;2022-09-23T10:17:22;19.30;94.30
23124;DHT22;11731;48.592;8.858;2022-09-23T10:19:54;19.10;94.30
23124;DHT22;11731;48.592;8.858;2022-09-23T10:22:27;19.20;94.50
23124;DHT22;11731;48.592;8.858;2022-09-23T10:24:57;19.10;94.50
23124;DHT22;11731;48.592;8.858;2022-09-23T10:27:29;19.30;94.40
23124;DHT22;11731;48.592;8.858;2022-09-23T10:29:58;19.40;94.10
23124;DHT22;11731;48.592;8.858;2022-09-23T10:32:28;19.20;94.40
23124;DHT22;11731;48.592;8.858;2022-09-23T10:34:58;19.40;94.10
23124;DHT22;11731;48.592;8.858;2022-09-23T10:37:56;19.70;93.80
23124;DHT22;11731;48.592;8.858;2022-09-23T10:40:29;19.90;93.50
23124;DHT22;11731;48.592;8.858;2022-09-23T10:43:27;20.00;93.40
23124;DHT22;11731;48.592;8.858;2022-09-23T10:46:18;20.30;93.30
23124;DHT22;11731;48.592;8.858;2022-09-23T10:49:37;20.50;92.90
23124;DHT22;11731;48.592;8.858;2022-09-23T10:52:25;20.60;92.90
23124;DHT22;11731;48.592;8.858;2022-09-23T10:55:06;20.80;92.50
23124;DHT22;11731;48.592;8.858;2022-09-23T10:57:46;21.00;92.10
23124;DHT22;11731;48.592;8.858;2022-09-23T11:00:21;20.70;92.50
23124;DHT22;11731;48.592;8.858;2022-09-23T11:03:14;20.90;92.30
23124;DHT22;11731;48.592;8.858;2022-09-23T11:05:48;21.00;91.90
23124;DHT22;11731;48.592;8.858;2022-09-23T11:08:56;21.10;91.90
23124;DHT22;11731;48.592;8.858;2022-09-23T11:11:39;21.10;91.50
23124;DHT22;11731;48.592;8.858;2022-09-23T11:14:26;21.30;91.70
23124;DHT22;11731;48.592;8.858;2022-09-23T11:17:13;21.30;91.40
23124;DHT22;11731;48.592;8.858;2022-09-23T11:20:02;21.50;91.30
23124;DHT22;11731;48.592;8.858;2022-09-23T11:22:46;21.90;91.00
23124;DHT22;11731;48.592;8.858;2022-09-23T11:25:33;21.80;90.70
23124;DHT22;11731;48.592;8.858;2022-09-23T11:31:02;21.90;90.90
23124;DHT22;11731;48.592;8.858;2022-09-23T11:33:45;22.00;90.50
23124;DHT22;11731;48.592;8.858;2022-09-23T11:36:23;22.30;90.20
23124;DHT22;11731;48.592;8.858;2022-09-23T11:38:54;22.20;90.20
23124;DHT22;11731;48.592;8.858;2022-09-23T11:41:26;22.20;90.10
23124;DHT22;11731;48.592;8.858;2022-09-23T11:43:59;22.30;90.40
23124;DHT22;11731;48.592;8.858;2022-09-23T11:46:33;22.40;90.00
23124;DHT22;11731;48.592;8.858;2022-09-23T11:49:08;22.50;89.70
23124;DHT22;11731;48.592;8.858;2022-09-23T11:51:45;22.80;89.20
23124;DHT22;11731;48.592;8.858;2022-09-23T11:54:19;22.70;90.00
23124;DHT22;11731;48.592;8.858;2022-09-23T11:56:50;22.50;89.90
23124;DHT22;11731;48.592;8.858;2022-09-23T11:59:27;22.40;90.30
23124;DHT22;11731;48.592;8.858;2022-09-23T12:02:02;21.80;90.80
23124;DHT22;11731;48.592;8.858;2022-09-23T12:04:44;21.20;91.90
23124;DHT22;11731;48.592;8.858;2022-09-23T12:07:42;21.40;91.90
23124;DHT22;11731;48.592;8.858;2022-09-23T12:10:10;21.60;91.70
23124;DHT22;11731;48.592;8.858;2022-09-23T12:12:43;21.80;91.40
23124;DHT22;11731;48.592;8.858;2022-09-23T12:15:21;21.90;90.70
23124;DHT22;11731;48.592;8.858;2022-09-23T12:18:12;22.10;91.00
23124;DHT22;11731;48.592;8.858;2022-09-23T12:21:04;22.70;90.00
23124;DHT22;11731;48.592;8.858;2022-09-23T12:24:00;22.70;90.30
23124;DHT22;11731;48.592;8.858;2022-09-23T12:26:32;23.10;89.80
23124;DHT22;11731;48.592;8.858;2022-09-23T12:29:02;23.10;89.10
23124;DHT22;11731;48.592;8.858;2022-09-23T12:31:30;23.10;88.60
23124;DHT22;11731;48.592;8.858;2022-09-23T12:34:15;23.30;88.80
23124;DHT22;11731;48.592;8.858;2022-09-23T12:36:46;23.30;88.40
23124;DHT22;11731;48.592;8.858;2022-09-23T12:39:15;23.40;88.70
23124;DHT22;11731;48.592;8.858;2022-09-23T12:41:45;23.30;88.50
23124;DHT22;11731;48.592;8.858;2022-09-23T12:44:25;23.40;88.70
23124;DHT22;11731;48.592;8.858;2022-09-23T12:49:50;23.60;87.60
23124;DHT22;11731;48.592;8.858;2022-09-23T12:52:25;23.60;89.10
23124;DHT22;11731;48.592;8.858;2022-09-23T12:54:55;23.70;87.80
23124;DHT22;11731;48.592;8.858;2022-09-23T12:57:40;23.80;87.20
23124;DHT22;11731;48.592;8.858;2022-09-23T13:00:21;23.80;87.20
23124;DHT22;11731;48.592;8.858;2022-09-23T13:02:55;23.60;85.50
23124;DHT22;11731;48.592;8.858;2022-09-23T13:05:46;23.70;86.00
23124;DHT22;11731;48.592;8.858;2022-09-23T13:08:35;23.80;86.40
23124;DHT22;11731;48.592;8.858;2022-09-23T13:11:05;23.50;86.20
23124;DHT22;11731;48.592;8.858;2022-09-23T13:13:36;23.50;85.70
23124;DHT22;11731;48.592;8.858;2022-09-23T13:16:12;23.50;86.40
23124;DHT22;11731;48.592;8.858;2022-09-23T13:18:59;23.60;86.40
23124;DHT22;11731;48.592;8.858;2022-09-23T13:22:11;23.80;84.60
23124;DHT22;11731;48.592;8.858;2022-09-23T13:24:53;23.80;85.40
23124;DHT22;11731;48.592;8.858;2022-09-23T13:27:23;23.60;85.70
23124;DHT22;11731;48.592;8.858;2022-09-23T13:29:58;23.10;87.20
23124;DHT22;11731;48.592;8.858;2022-09-23T13:32:29;22.90;88.40
23124;DHT22;11731;48.592;8.858;2022-09-23T13:35:00;22.50;78.60
23124;DHT22;11731;48.592;8.858;2022-09-23T13:37:39;22.10;78.00
23124;DHT22;11731;48.592;8.858;2022-09-23T13:40:34;21.90;80.00
23124;DHT22;11731;48.592;8.858;2022-09-23T13:43:04;22.00;77.10
23124;DHT22;11731;48.592;8.858;2022-09-23T13:45:36;22.00;77.70
23124;DHT22;11731;48.592;8.858;2022-09-23T13:48:05;21.90;75.90
23124;DHT22;11731;48.592;8.858;2022-09-23T13:50:36;22.00;78.00
23124;DHT22;11731;48.592;8.858;2022-09-23T13:53:07;22.10;75.80
23124;DHT22;11731;48.592;8.858;2022-09-23T13:55:37;22.30;74.60
23124;DHT22;11731;48.592;8.858;2022-09-23T13:58:13;22.10;74.90
23124;DHT22;11731;48.592;8.858;2022-09-23T14:00:41;22.20;75.10
23124;DHT22;11731;48.592;8.858;2022-09-23T14:03:34;22.30;84.40
23124;DHT22;11731;48.592;8.858;2022-09-23T14:06:04;22.40;86.70
23124;DHT22;11731;48.592;8.858;2022-09-23T14:08:32;22.00;88.40
23124;DHT22;11731;48.592;8.858;2022-09-23T14:11:01;22.00;89.90
23124;DHT22;11731;48.592;8.858;2022-09-23T14:13:34;21.80;89.70
23124;DHT22;11731;48.592;8.858;2022-09-23T14:16:03;22.00;89.40
23124;DHT22;11731;48.592;8.858;2022-09-23T14:18:33;22.10;88.70
23124;DHT22;11731;48.592;8.858;2022-09-23T14:21:01;21.90;89.60
23124;DHT22;11731;48.592;8.858;2022-09-23T14:23:28;22.00;90.00
23124;DHT22;11731;48.592;8.858;2022-09-23T14:25:55;22.00;88.80
23124;DHT22;11731;48.592;8.858;2022-09-23T14:28:25;21.50;89.70
23124;DHT22;11731;48.592;8.858;2022-09-23T14:30:54;20.60;90.90
23124;DHT22;11731;48.592;8.858;2022-09-23T14:33:25;20.50;91.00
23124;DHT22;11731;48.592;8.858;2022-09-23T14:35:54;20.90;90.80
23124;DHT22;11731;48.592;8.858;2022-09-23T14:38:23;21.40;91.10
23124;DHT22;11731;48.592;8.858;2022-09-23T14:41:21;21.60;90.90
23124;DHT22;11731;48.592;8.858;2022-09-23T14:43:52;21.50;90.90
23124;DHT22;11731;48.592;8.858;2022-09-23T14:46:21;21.50;90.90
23124;DHT22;11731;48.592;8.858;2022-09-23T14:49:01;21.30;90.90
23124;DHT22;11731;48.592;8.858;2022-09-23T14:51:46;21.40;90.50
23124;DHT22;11731;48.592;8.858;2022-09-23T14:54:33;21.70;90.70
23124;DHT22;11731;48.592;8.858;2022-09-23T14:57:01;21.30;90.80
23124;DHT22;11731;48.592;8.858;2022-09-23T14:59:33;21.10;91.20
23124;DHT22;11731;48.592;8.858;2022-09-23T15:02:00;21.40;90.70
23124;DHT22;11731;48.592;8.858;2022-09-23T15:04:29;21.60;90.50
23124;DHT22;11731;48.592;8.858;2022-09-23T15:06:59;21.80;90.70
23124;DHT22;11731;48.592;8.858;2022-09-23T15:09:30;22.00;90.60
23124;DHT22;11731;48.592;8.858;2022-09-23T15:12:00;22.10;90.50
23124;DHT22;11731;48.592;8.858;2022-09-23T15:14:30;22.30;90.10
23124;DHT22;11731;48.592;8.858;2022-09-23T15:17:02;22.10;90.30
23124;DHT22;11731;48.592;8.858;2022-09-23T15:19:30;21.70;90.70
23124;DHT22;11731;48.592;8.858;2022-09-23T15:22:00;21.30;91.00
23124;DHT22;11731;48.592;8.858;2022-09-23T15:24:39;21.20;91.30
23124;DHT22;11731;48.592;8.858;2022-09-23T15:27:26;21.30;91.40
23124;DHT22;11731;48.592;8.858;2022-09-23T15:29:57;21.10;91.80
23124;DHT22;11731;48.592;8.858;2022-09-23T15:32:27;21.20;91.40
23124;DHT22;11731;48.592;8.858;2022-09-23T15:34:54;21.00;91.90
23124;DHT22;11731;48.592;8.858;2022-09-23T15:37:21;20.50;92.20
23124;DHT22;11731;48.592;8.858;2022-09-23T15:39:48;20.30;92.70
23124;DHT22;11731;48.592;8.858;2022-09-23T15:42:15;20.20;92.60
23124;DHT22;11731;48.592;8.858;2022-09-23T15:44:42;20.20;92.90
23124;DHT22;11731;48.592;8.858;2022-09-23T15:47:13;20.40;92.80
23124;DHT22;11731;48.592;8.858;2022-09-23T15:49:44;20.20;93.10
23124;DHT22;11731;48.592;8.858;2022-09-23T15:52:12;20.40;93.10
23124;DHT22;11731;48.592;8.858;2022-09-23T15:54:40;20.30;92.60
23124;DHT22;11731;48.592;8.858;2022-09-23T15:57:07;20.10;92.70
23124;DHT22;11731;48.592;8.858;2022-09-23T15:59:34;20.00;92.90
23124;DHT22;11731;48.592;8.858;2022-09-23T16:02:05;19.80;92.80
23124;DHT22;11731;48.592;8.858;2022-09-23T16:04:33;20.30;93.10
23124;DHT22;11731;48.592;8.858;2022-09-23T16:07:01;20.10;93.00
23124;DHT22;11731;48.592;8.858;2022-09-23T16:09:30;20.20;93.00
23124;DHT22;11731;48.592;8.858;2022-09-23T16:11:56;20.00;93.20
23124;DHT22;11731;48.592;8.858;2022-09-23T16:14:27;19.90;93.40
23124;DHT22;11731;48.592;8.858;2022-09-23T16:16:54;19.50;94.10
23124;DHT22;11731;48.592;8.858;2022-09-23T16:19:21;19.90;93.80